Time;durP1;ratioP1;P1;durP2;ratioP2;P2;SDS_P1;SDS_P2;PMS_P1;PMS_P2;Temp;Humidity;BMP_temperature;BMP_pressure;BME280_temperature;BME280_humidity;BME280_pressure;Samples;Min_cycle;Max_cycle;Signal;HPM_P1;HPM_P2
2021/04/24 00:00:00;;;;;;;18.07;9.73;;;4.90;1.00;;;;;;4815709;28;20191;-81
2021/04/24 00:02:23;;;;;;;16.40;9.40;;;5.10;99.90;;;;;;4808284;28;20231;-78
2021/04/24 00:04:45;;;;;;;13.77;8.47;;;5.00;1.00;;;;;;4817212;28;20250;-81
2021/04/24 00:07:07;;;;;;;17.10;9.40;;;4.90;1.00;;;;;;4817505;28;20198;-80
2021/04/24 00:09:30;;;;;;;16.00;9.67;;;4.90;1.00;;;;;;4819350;28;20188;-82
2021/04/24 00:11:52;;;;;;;14.80;8.83;;;4.90;1.00;;;;;;4818441;28;20771;-75
2021/04/24 00:14:15;;;;;;;17.80;9.23;;;4.30;1.00;;;;;;4818584;28;20203;-77
2021/04/24 00:16:37;;;;;;;22.20;10.83;;;4.90;89.40;;;;;;4816923;28;20649;-74
2021/04/24 00:18:59;;;;;;;16.70;9.50;;;;;;;;;;4804933;28;20231;-75
2021/04/24 00:21:21;;;;;;;15.00;8.87;;;;;;;;;;4819426;28;20238;-79
2021/04/24 00:23:44;;;;;;;16.87;9.63;;;4.60;1.00;;;;;;4801089;28;20251;-74
2021/04/24 00:26:07;;;;;;;15.03;9.13;;;4.80;1.00;;;;;;4817457;28;20207;-83
2021/04/24 00:28:29;;;;;;;15.03;8.90;;;;;;;;;;4816596;28;20253;-79
2021/04/24 00:30:52;;;;;;;14.83;8.77;;;;;;;;;;4817970;28;20215;-82
2021/04/24 00:33:14;;;;;;;20.50;9.93;;;;;;;;;;4814149;28;20203;-76
2021/04/24 00:35:36;;;;;;;19.87;10.27;;;;;;;;;;4816770;28;20231;-76
2021/04/24 00:37:59;;;;;;;21.07;10.13;;;;;;;;;;4849444;28;20198;-82
2021/04/24 00:40:21;;;;;;;18.27;9.13;;;4.60;99.90;;;;;;4816454;28;20629;-76
2021/04/24 00:42:45;;;;;;;16.53;9.20;;;4.30;1.00;;;;;;4817926;28;20535;-75
2021/04/24 00:45:10;;;;;;;18.73;9.53;;;4.30;51.70;;;;;;4833946;28;20217;-75
2021/04/24 00:47:33;;;;;;;15.40;8.93;;;;;;;;;;4817876;28;20191;-82
2021/04/24 00:49:55;;;;;;;14.83;8.50;;;;;;;;;;4816724;28;20294;-75
2021/04/24 00:52:18;;;;;;;17.80;9.20;;;4.40;1.00;;;;;;4818884;28;20538;-82
2021/04/24 00:54:40;;;;;;;15.60;8.97;;;4.40;1.00;;;;;;4817575;28;20307;-84
2021/04/24 00:57:03;;;;;;;20.47;10.53;;;4.50;1.00;;;;;;4799494;28;20204;-80
2021/04/24 00:59:26;;;;;;;18.63;9.20;;;4.40;1.00;;;;;;4817241;28;20226;-75
2021/04/24 01:01:48;;;;;;;16.17;9.27;;;4.30;99.90;;;;;;4815814;28;20239;-76
2021/04/24 01:04:11;;;;;;;16.83;9.27;;;;;;;;;;4826060;28;20175;-82
2021/04/24 01:06:33;;;;;;;16.90;9.07;;;;;;;;;;4836428;28;20198;-78
2021/04/24 01:08:55;;;;;;;18.00;10.03;;;4.20;82.00;;;;;;4832636;28;20618;-80
2021/04/24 01:11:18;;;;;;;19.97;9.63;;;4.20;1.00;;;;;;4819614;28;20257;-81
2021/04/24 01:13:40;;;;;;;16.90;9.13;;;5.00;1.00;;;;;;4807681;28;20228;-80
2021/04/24 01:16:04;;;;;;;16.20;9.20;;;4.30;99.90;;;;;;4817818;28;20287;-82
2021/04/24 01:18:27;;;;;;;19.63;10.07;;;4.40;1.00;;;;;;4832512;28;20246;-85
2021/04/24 01:20:52;;;;;;;13.90;8.73;;;4.40;54.00;;;;;;4848433;28;20193;-78
2021/04/24 01:23:15;;;;;;;17.87;9.53;;;4.40;99.90;;;;;;4843303;28;20651;-81
2021/04/24 01:25:40;;;;;;;14.53;9.10;;;4.40;2.00;;;;;;4812283;28;20196;-82
2021/04/24 01:28:03;;;;;;;15.03;9.13;;;4.70;1.00;;;;;;4814157;28;20254;-81
2021/04/24 01:30:28;;;;;;;16.67;9.90;;;4.00;1.00;;;;;;4799587;28;20192;-78
2021/04/24 01:32:51;;;;;;;13.90;8.73;;;4.30;1.00;;;;;;4817722;28;20638;-75
2021/04/24 01:35:18;;;;;;;16.00;8.70;;;4.30;1.00;;;;;;4817064;28;20771;-78
2021/04/24 01:37:40;;;;;;;14.50;8.47;;;4.80;1.00;;;;;;4818093;28;20658;-81
2021/04/24 01:40:04;;;;;;;14.27;8.33;;;4.70;1.00;;;;;;4813795;28;20281;-80
2021/04/24 01:42:27;;;;;;;15.40;8.70;;;;;;;;;;4809595;28;20234;-83
2021/04/24 01:44:49;;;;;;;14.43;7.70;;;;;;;;;;4800387;28;20212;-79
2021/04/24 01:47:11;;;;;;;16.93;8.00;;;;;;;;;;4817671;28;20242;-82
2021/04/24 01:49:33;;;;;;;12.77;7.03;;;4.60;1.00;;;;;;4801957;28;20199;-82
2021/04/24 01:51:55;;;;;;;12.47;7.30;;;4.60;1.00;;;;;;4818111;28;20238;-83
2021/04/24 01:54:18;;;;;;;17.50;8.63;;;4.40;1.00;;;;;;4818587;28;20196;-82
2021/04/24 01:56:46;;;;;;;14.60;7.57;;;4.40;1.00;;;;;;4817401;28;20199;-76
2021/04/24 01:59:09;;;;;;;15.80;7.30;;;;;;;;;;4817386;28;20283;-84
2021/04/24 02:01:31;;;;;;;12.23;6.80;;;;;;;;;;4814396;28;20281;-76
2021/04/24 02:03:53;;;;;;;11.40;7.17;;;4.80;1.00;;;;;;4818618;28;20203;-82
2021/04/24 02:06:15;;;;;;;14.73;7.33;;;4.40;1.00;;;;;;4800045;28;20235;-83
2021/04/24 02:08:40;;;;;;;11.10;6.53;;;4.60;1.00;;;;;;4814835;28;20249;-80
2021/04/24 02:11:05;;;;;;;14.63;7.63;;;4.40;1.00;;;;;;4807965;28;20195;-84
2021/04/24 02:13:31;;;;;;;13.83;7.63;;;3.70;99.90;;;;;;4835844;28;20213;-81
2021/04/24 02:15:54;;;;;;;14.87;7.07;;;;;;;;;;4815906;28;20223;-82
2021/04/24 02:18:16;;;;;;;16.50;7.30;;;5.00;99.90;;;;;;4816830;28;20203;-76
2021/04/24 02:20:40;;;;;;;15.60;7.53;;;4.60;1.00;;;;;;4802622;28;20254;-81
2021/04/24 02:23:03;;;;;;;12.03;6.47;;;4.60;1.00;;;;;;4805107;28;20557;-81
2021/04/24 02:25:25;;;;;;;13.73;7.07;;;4.40;1.00;;;;;;4802924;28;20211;-79
2021/04/24 02:27:47;;;;;;;11.53;6.97;;;;;;;;;;4818888;28;20233;-80
2021/04/24 02:30:14;;;;;;;10.23;6.10;;;4.40;1.00;;;;;;4821383;28;20254;-74
2021/04/24 02:32:37;;;;;;;13.17;6.83;;;;;;;;;;4817452;28;20211;-78
2021/04/24 02:35:01;;;;;;;12.27;6.70;;;4.50;1.00;;;;;;4813962;28;20412;-80
2021/04/24 02:37:23;;;;;;;14.73;6.97;;;;;;;;;;4835015;28;20207;-75
2021/04/24 02:39:47;;;;;;;11.30;6.77;;;4.40;1.00;;;;;;4820217;28;20242;-80
2021/04/24 02:42:12;;;;;;;9.57;6.00;;;4.40;1.00;;;;;;4819240;28;20266;-75
2021/04/24 02:44:34;;;;;;;11.47;6.17;;;4.40;1.00;;;;;;4819132;28;20293;-81
2021/04/24 02:46:58;;;;;;;20.43;8.13;;;4.40;1.00;;;;;;4819014;28;20235;-81
2021/04/24 02:49:20;;;;;;;13.03;6.60;;;4.50;1.00;;;;;;4820247;28;20715;-82
2021/04/24 02:51:42;;;;;;;9.23;5.80;;;;;;;;;;4836540;28;20207;-82
2021/04/24 02:54:05;;;;;;;14.30;7.07;;;4.30;1.00;;;;;;4851897;28;20225;-78
2021/04/24 02:56:27;;;;;;;13.87;6.90;;;4.50;20.50;;;;;;4851394;28;20260;-76
2021/04/24 02:58:50;;;;;;;14.43;7.13;;;;;;;;;;4801631;28;20290;-75
2021/04/24 03:01:12;;;;;;;16.97;6.90;;;;;;;;;;4798631;28;20195;-75
2021/04/24 03:03:35;;;;;;;10.67;6.50;;;4.30;14.10;;;;;;4819611;28;20242;-74
2021/04/24 03:05:58;;;;;;;13.60;7.00;;;4.20;1.00;;;;;;4819710;28;20195;-83
2021/04/24 03:08:20;;;;;;;11.83;6.53;;;4.20;1.00;;;;;;4818874;28;20188;-75
2021/04/24 03:10:42;;;;;;;11.77;6.80;;;4.30;1.00;;;;;;4818656;28;20211;-74
2021/04/24 03:13:05;;;;;;;16.43;7.37;;;4.10;1.00;;;;;;4819988;28;20225;-81
2021/04/24 03:15:28;;;;;;;15.83;7.50;;;;;;;;;;4820093;28;20924;-82
2021/04/24 03:17:52;;;;;;;12.00;6.57;;;4.40;1.00;;;;;;4819462;28;20564;-78
2021/04/24 03:20:17;;;;;;;13.03;6.53;;;4.40;1.00;;;;;;4801777;28;20258;-74
2021/04/24 03:22:39;;;;;;;9.77;5.90;;;4.40;99.90;;;;;;4818067;28;20207;-83
2021/04/24 03:25:01;;;;;;;10.27;6.03;;;4.50;99.90;;;;;;4820212;28;20559;-81
2021/04/24 03:27:24;;;;;;;12.63;6.57;;;;;;;;;;4818774;28;20195;-75
2021/04/24 03:29:46;;;;;;;9.97;6.33;;;4.30;99.90;;;;;;4802731;28;20246;-81
2021/04/24 03:32:08;;;;;;;14.07;7.00;;;4.60;99.90;;;;;;4817581;28;20253;-84
2021/04/24 03:34:30;;;;;;;12.10;6.70;;;4.40;1.00;;;;;;4818926;28;20648;-81
2021/04/24 03:36:53;;;;;;;23.13;9.30;;;4.40;99.90;;;;;;4818102;28;20823;-82
2021/04/24 03:39:15;;;;;;;17.00;7.37;;;4.40;1.00;;;;;;4819603;28;20262;-82
2021/04/24 03:41:38;;;;;;;10.60;6.30;;;;;;;;;;4801786;28;20275;-78
2021/04/24 03:44:00;;;;;;;10.30;6.40;;;4.50;1.00;;;;;;4815327;28;20249;-83
2021/04/24 03:46:22;;;;;;;12.37;6.50;;;4.40;1.00;;;;;;4808381;28;20199;-81
2021/04/24 03:48:44;;;;;;;11.20;6.47;;;4.40;1.00;;;;;;4834034;28;20248;-82
2021/04/24 03:51:06;;;;;;;12.10;6.80;;;4.40;1.00;;;;;;4850872;28;20194;-81
2021/04/24 03:53:29;;;;;;;10.87;6.37;;;4.20;1.00;;;;;;4817380;28;20270;-81
2021/04/24 03:55:52;;;;;;;10.83;6.23;;;;;;;;;;4834243;28;20594;-78
2021/04/24 03:58:14;;;;;;;12.87;7.30;;;4.40;99.90;;;;;;4817391;28;20203;-83
2021/04/24 04:00:36;;;;;;;37.07;12.27;;;;;;;;;;4816944;28;20302;-81
2021/04/24 04:03:01;;;;;;;11.50;6.47;;;4.30;99.90;;;;;;4817214;28;20223;-81
2021/04/24 04:05:26;;;;;;;11.73;6.47;;;4.40;1.00;;;;;;4801476;28;20212;-82
2021/04/24 04:07:48;;;;;;;13.33;6.67;;;4.60;1.00;;;;;;4798980;28;20231;-81
2021/04/24 04:10:13;;;;;;;11.07;5.90;;;4.30;99.90;;;;;;4818962;28;20191;-78
2021/04/24 04:12:36;;;;;;;8.80;6.13;;;;;;;;;;4819454;28;20689;-82
2021/04/24 04:14:58;;;;;;;15.40;7.03;;;;;;;;;;4801657;28;20199;-78
2021/04/24 04:17:20;;;;;;;13.50;6.63;;;;;;;;;;4814216;28;20211;-81
2021/04/24 04:19:42;;;;;;;13.43;6.63;;;4.10;1.00;;;;;;4800227;28;20194;-76
2021/04/24 04:22:04;;;;;;;13.90;6.73;;;4.30;99.90;;;;;;4807626;28;20199;-81
2021/04/24 04:24:26;;;;;;;14.97;7.37;;;4.70;99.90;;;;;;4813401;28;20199;-80
2021/04/24 04:26:49;;;;;;;17.87;8.10;;;4.20;1.00;;;;;;4804082;28;20187;-76
2021/04/24 04:29:11;;;;;;;10.83;6.60;;;;;;;;;;4850001;28;20202;-76
2021/04/24 04:31:34;;;;;;;11.23;6.00;;;4.30;99.90;;;;;;4818818;28;20614;-82
2021/04/24 04:33:56;;;;;;;12.30;6.70;;;4.20;99.90;;;;;;4819498;28;20226;-83
2021/04/24 04:36:18;;;;;;;16.13;7.90;;;4.40;1.00;;;;;;4814297;28;20219;-79
2021/04/24 04:38:40;;;;;;;12.73;7.13;;;4.20;88.00;;;;;;4816474;28;20685;-82
2021/04/24 04:41:05;;;;;;;14.53;7.50;;;4.30;9.20;;;;;;4833608;28;20229;-78
2021/04/24 04:43:28;;;;;;;13.10;6.93;;;4.40;99.90;;;;;;4849952;28;20303;-81
2021/04/24 04:45:50;;;;;;;12.13;6.13;;;4.60;1.00;;;;;;4819145;28;20644;-80
2021/04/24 04:48:13;;;;;;;8.63;6.23;;;;;;;;;;4817307;28;20331;-80
2021/04/24 04:50:36;;;;;;;8.70;6.10;;;4.60;99.90;;;;;;4819047;28;20250;-80
2021/04/24 04:52:59;;;;;;;11.33;6.97;;;4.50;99.90;;;;;;4830637;28;20198;-77
2021/04/24 04:55:22;;;;;;;11.60;6.70;;;4.40;1.00;;;;;;4814798;28;20223;-81
2021/04/24 04:57:45;;;;;;;9.97;6.20;;;5.00;99.90;;;;;;4813268;28;20322;-74
2021/04/24 05:00:11;;;;;;;11.80;6.53;;;5.20;1.00;;;;;;4833016;28;20638;-82
2021/04/24 05:02:33;;;;;;;10.83;6.73;;;6.00;1.00;;;;;;4798008;28;20595;-76
2021/04/24 05:04:55;;;;;;;10.93;6.37;;;5.40;1.00;;;;;;4818832;28;20192;-82
2021/04/24 05:07:18;;;;;;;13.87;6.83;;;4.70;99.90;;;;;;4832223;28;20261;-81
2021/04/24 05:09:40;;;;;;;8.50;5.80;;;5.30;1.00;;;;;;4816931;28;20200;-80
2021/04/24 05:12:03;;;;;;;9.47;5.80;;;;;;;;;;4849934;28;20194;-81
2021/04/24 05:14:25;;;;;;;10.07;6.10;;;;;;;;;;4833153;28;20203;-80
2021/04/24 05:16:48;;;;;;;16.70;7.27;;;5.40;99.90;;;;;;4824164;28;20274;-77
2021/04/24 05:19:11;;;;;;;11.07;5.83;;;5.30;1.00;;;;;;4850274;28;20193;-83
2021/04/24 05:21:34;;;;;;;9.10;5.37;;;;;;;;;;4817598;28;20571;-79
2021/04/24 05:23:56;;;;;;;13.03;6.13;;;;;;;;;;4817880;28;20233;-82
2021/04/24 05:26:19;;;;;;;11.33;6.07;;;5.80;1.00;;;;;;4817041;28;20199;-81
2021/04/24 05:28:41;;;;;;;10.50;5.83;;;5.80;1.00;;;;;;4818246;28;20574;-82
2021/04/24 05:31:03;;;;;;;12.20;6.70;;;5.70;1.00;;;;;;4800160;28;20270;-80
2021/04/24 05:33:26;;;;;;;12.33;6.23;;;5.10;1.00;;;;;;4818470;28;20234;-81
2021/04/24 05:35:48;;;;;;;8.67;5.30;;;6.00;1.00;;;;;;4816569;28;20231;-78
2021/04/24 05:38:10;;;;;;;8.67;5.30;;;6.20;1.00;;;;;;4818112;28;20183;-81
2021/04/24 05:40:32;;;;;;;9.57;5.47;;;6.00;1.00;;;;;;4818280;28;20227;-79
2021/04/24 05:42:55;;;;;;;7.60;5.10;;;6.20;1.00;;;;;;4816720;28;20207;-84
2021/04/24 05:45:17;;;;;;;15.53;6.33;;;6.40;1.00;;;;;;4817349;28;20187;-79
2021/04/24 05:47:39;;;;;;;9.70;5.47;;;6.30;99.90;;;;;;4834625;28;20207;-78
2021/04/24 05:50:04;;;;;;;8.97;5.40;;;6.40;1.00;;;;;;4822254;28;20183;-82
2021/04/24 05:52:27;;;;;;;33.27;11.03;;;;;;;;;;4816885;28;20210;-76
2021/04/24 05:54:48;;;;;;;9.03;4.97;;;6.30;99.90;;;;;;4817241;28;20804;-79
2021/04/24 05:57:11;;;;;;;9.97;5.40;;;;;;;;;;4852086;28;20214;-75
2021/04/24 05:59:33;;;;;;;7.20;4.37;;;6.50;99.90;;;;;;4801771;28;20211;-76
2021/04/24 06:01:55;;;;;;;7.27;4.20;;;6.60;99.90;;;;;;4819200;28;20219;-80
2021/04/24 06:04:17;;;;;;;12.00;5.20;;;7.20;99.90;;;;;;4819565;28;20685;-78
2021/04/24 06:06:40;;;;;;;6.23;3.60;;;6.60;99.90;;;;;;4821078;28;20258;-80
2021/04/24 06:09:03;;;;;;;7.13;3.27;;;6.90;1.00;;;;;;4819862;28;20318;-80
2021/04/24 06:11:25;;;;;;;13.03;4.97;;;;;;;;;;4818245;28;20188;-81
2021/04/24 06:13:48;;;;;;;9.53;4.77;;;6.70;1.00;;;;;;4848816;28;20240;-78
2021/04/24 06:16:12;;;;;;;7.80;4.43;;;;;;;;;;4832876;28;20281;-76
2021/04/24 06:18:35;;;;;;;6.17;3.77;;;6.80;1.00;;;;;;4832735;28;20232;-76
2021/04/24 06:20:58;;;;;;;6.90;3.73;;;;;;;;;;4819933;28;20223;-78
2021/04/24 06:23:21;;;;;;;10.70;4.77;;;7.30;1.00;;;;;;4836510;28;20226;-77
2021/04/24 06:25:43;;;;;;;10.00;4.40;;;7.80;1.00;;;;;;4819892;28;20711;-76
2021/04/24 06:28:05;;;;;;;7.30;3.70;;;;;;;;;;4835245;28;20233;-77
2021/04/24 06:30:27;;;;;;;10.03;4.30;;;8.50;91.30;;;;;;4819823;28;20258;-78
2021/04/24 06:32:51;;;;;;;7.33;3.33;;;9.00;69.40;;;;;;4787237;28;20677;-77
2021/04/24 06:35:15;;;;;;;6.63;3.43;;;8.80;1.00;;;;;;4819710;28;20704;-80
2021/04/24 06:37:38;;;;;;;5.30;3.43;;;8.80;1.00;;;;;;4813551;28;20654;-80
2021/04/24 06:40:01;;;;;;;7.87;3.90;;;8.60;99.90;;;;;;4834960;28;20219;-79
2021/04/24 06:42:23;;;;;;;10.13;4.17;;;7.90;12.10;;;;;;4819404;28;20948;-76
2021/04/24 06:44:45;;;;;;;5.93;3.50;;;8.80;17.40;;;;;;4820753;28;20641;-76
2021/04/24 06:47:08;;;;;;;8.37;3.57;;;8.30;15.80;;;;;;4819329;28;20269;-75
2021/04/24 06:49:30;;;;;;;6.43;3.10;;;8.70;1.00;;;;;;4821107;28;20546;-84
2021/04/24 06:51:52;;;;;;;4.87;2.63;;;;;;;;;;4804022;28;20678;-78
2021/04/24 06:54:14;;;;;;;9.47;3.60;;;;;;;;;;4802460;28;20192;-83
2021/04/24 06:56:37;;;;;;;4.43;2.53;;;8.60;1.00;;;;;;4803315;28;20254;-78
2021/04/24 06:59:00;;;;;;;5.43;2.73;;;;;;;;;;4818618;28;20555;-80
2021/04/24 07:01:22;;;;;;;8.27;3.10;;;;;;;;;;4816785;28;20579;-79
2021/04/24 07:03:45;;;;;;;5.63;2.43;;;;;;;;;;4802731;28;20561;-82
2021/04/24 07:06:07;;;;;;;8.10;2.60;;;;;;;;;;4821038;28;20191;-74
2021/04/24 07:08:29;;;;;;;13.30;4.23;;;9.10;1.00;;;;;;4816203;28;20203;-74
2021/04/24 07:10:51;;;;;;;3.50;1.90;;;;;;;;;;4821018;28;20183;-77
2021/04/24 07:13:14;;;;;;;7.90;2.93;;;9.70;1.00;;;;;;4819081;28;20626;-77
2021/04/24 07:15:37;;;;;;;6.10;2.43;;;;;;;;;;4803127;28;20226;-74
2021/04/24 07:17:59;;;;;;;5.63;2.50;;;;;;;;;;4818090;28;20203;-79
2021/04/24 07:20:21;;;;;;;10.63;3.30;;;9.80;1.00;;;;;;4817610;28;20737;-77
2021/04/24 07:22:43;;;;;;;5.47;2.40;;;10.10;1.00;;;;;;4835177;28;20599;-74
2021/04/24 07:25:06;;;;;;;6.60;2.43;;;10.00;99.90;;;;;;4820509;28;20195;-79
2021/04/24 07:27:28;;;;;;;3.87;1.83;;;10.20;1.00;;;;;;4824859;28;20260;-75
2021/04/24 07:29:51;;;;;;;9.83;3.13;;;10.00;99.90;;;;;;4819730;28;20200;-79
2021/04/24 07:32:13;;;;;;;8.13;2.73;;;10.10;1.00;;;;;;4830020;28;20553;-77
2021/04/24 07:34:35;;;;;;;5.03;2.07;;;10.10;1.00;;;;;;4828066;28;20562;-83
2021/04/24 07:36:58;;;;;;;16.30;4.17;;;;;;;;;;4818239;28;20219;-82
2021/04/24 07:39:20;;;;;;;8.73;2.80;;;10.80;1.00;;;;;;4835166;28;20284;-73
2021/04/24 07:41:42;;;;;;;4.63;2.10;;;;;;;;;;4849698;28;20283;-76
2021/04/24 07:44:05;;;;;;;6.03;2.60;;;10.50;99.90;;;;;;4818559;28;20293;-79
2021/04/24 07:46:28;;;;;;;7.03;2.70;;;10.60;99.90;;;;;;4819301;28;20265;-76
2021/04/24 07:48:51;;;;;;;4.40;2.10;;;;;;;;;;4818249;28;20708;-75
2021/04/24 07:51:14;;;;;;;6.30;2.23;;;11.60;1.00;;;;;;4817668;28;20254;-76
2021/04/24 07:53:36;;;;;;;4.27;2.07;;;11.20;1.00;;;;;;4833743;28;20556;-74
2021/04/24 07:55:58;;;;;;;5.33;2.03;;;;;;;;;;4819965;28;20238;-80
2021/04/24 07:58:20;;;;;;;8.57;2.77;;;10.90;1.00;;;;;;4817388;28;20587;-74
2021/04/24 08:00:43;;;;;;;36.80;8.43;;;10.90;1.00;;;;;;4815844;28;20187;-80
2021/04/24 08:03:06;;;;;;;4.63;2.03;;;11.50;99.90;;;;;;4816652;28;20199;-74
2021/04/24 08:05:28;;;;;;;8.67;2.93;;;;;;;;;;4816804;28;20723;-78
2021/04/24 08:07:51;;;;;;;3.27;1.80;;;;;;;;;;4832639;28;20198;-75
2021/04/24 08:10:14;;;;;;;5.60;2.03;;;11.90;99.90;;;;;;4819771;28;20257;-80
2021/04/24 08:12:36;;;;;;;5.37;2.07;;;11.80;1.00;;;;;;4817418;28;20191;-80
2021/04/24 08:14:58;;;;;;;5.53;2.07;;;12.30;1.00;;;;;;4817331;28;20195;-84
2021/04/24 08:17:21;;;;;;;7.93;2.37;;;12.10;1.00;;;;;;4817694;28;20294;-74
2021/04/24 08:19:44;;;;;;;5.40;2.13;;;12.00;1.00;;;;;;4818004;28;20624;-75
2021/04/24 08:22:06;;;;;;;5.40;1.90;;;12.80;1.00;;;;;;4818020;28;20295;-73
2021/04/24 08:24:29;;;;;;;9.70;3.00;;;;;;;;;;4816191;28;20242;-78
2021/04/24 08:26:51;;;;;;;10.93;3.10;;;12.30;99.90;;;;;;4819122;28;20253;-74
2021/04/24 08:29:13;;;;;;;4.83;1.90;;;;;;;;;;4819535;28;20234;-80
2021/04/24 08:31:36;;;;;;;3.97;1.53;;;12.50;99.90;;;;;;4819059;28;20211;-82
2021/04/24 08:33:59;;;;;;;4.87;1.73;;;;;;;;;;4801093;28;20203;-79
2021/04/24 08:36:22;;;;;;;7.83;2.33;;;12.90;99.90;;;;;;4818713;28;20215;-76
2021/04/24 08:38:44;;;;;;;6.70;2.20;;;;;;;;;;4817484;28;20265;-75
2021/04/24 08:41:07;;;;;;;5.83;2.13;;;13.50;99.90;;;;;;4819255;28;20239;-75
2021/04/24 08:43:30;;;;;;;9.43;2.73;;;13.70;1.00;;;;;;4817199;28;20211;-77
2021/04/24 08:45:56;;;;;;;8.37;2.50;;;14.00;99.90;;;;;;4817301;28;20650;-77
2021/04/24 08:48:20;;;;;;;9.70;2.67;;;14.10;99.90;;;;;;4818920;28;20191;-80
2021/04/24 08:50:42;;;;;;;7.20;2.33;;;;;;;;;;4834887;28;20195;-78
2021/04/24 08:53:06;;;;;;;4.73;1.63;;;14.20;99.90;;;;;;4817624;28;20242;-76
2021/04/24 08:55:30;;;;;;;8.07;2.20;;;14.30;99.90;;;;;;4816992;28;20202;-73
2021/04/24 08:57:52;;;;;;;4.87;1.63;;;;;;;;;;4815952;28;20219;-75
2021/04/24 09:00:17;;;;;;;7.67;2.03;;;14.90;1.00;;;;;;4831558;28;20265;-77
2021/04/24 09:02:41;;;;;;;7.23;1.83;;;15.00;1.00;;;;;;4796100;28;20228;-74
2021/04/24 09:05:04;;;;;;;13.60;3.03;;;15.30;99.90;;;;;;4817401;28;20191;-75
2021/04/24 09:07:27;;;;;;;18.40;3.30;;;;;;;;;;4814200;28;20258;-77
2021/04/24 09:09:58;;;;;;;9.33;1.83;;;16.40;99.90;;;;;;4817090;28;20350;-73
2021/04/24 09:12:34;;;;;;;18.63;3.07;;;16.60;99.90;;;;;;4800772;28;20191;-73
2021/04/24 09:15:07;;;;;;;11.57;2.13;;;16.50;99.90;;;;;;4818493;28;20653;-75
2021/04/24 09:17:48;;;;;;;14.57;2.47;;;16.20;99.90;;;;;;4816862;28;20238;-74
2021/04/24 09:20:11;;;;;;;15.23;2.70;;;16.00;99.90;;;;;;4824080;28;20220;-78
2021/04/24 09:22:33;;;;;;;3.10;0.80;;;;;;;;;;4821158;28;20305;-74
2021/04/24 09:24:55;;;;;;;6.07;1.20;;;;;;;;;;4820855;28;20253;-77
2021/04/24 09:27:19;;;;;;;11.17;1.87;;;19.70;99.90;;;;;;4818264;28;20658;-77
2021/04/24 09:29:41;;;;;;;12.37;1.77;;;;;;;;;;4819857;28;20594;-77
2021/04/24 09:32:17;;;;;;;30.37;17.67;;;23.10;99.90;;;;;;4820569;28;20268;-73
2021/04/24 09:34:39;;;;;;;10.43;1.47;;;;;;;;;;4835702;28;20263;-79
2021/04/24 09:37:02;;;;;;;34.13;4.40;;;;;;;;;;4821187;28;20460;-75
2021/04/24 09:39:30;;;;;;;19.57;2.57;;;21.10;99.90;;;;;;4820363;28;20225;-78
2021/04/24 09:41:52;;;;;;;5.27;0.90;;;;;;;;;;4820264;28;20253;-74
2021/04/24 09:44:16;;;;;;;17.40;2.50;;;19.70;99.90;;;;;;4836436;28;20667;-74
2021/04/24 09:46:51;;;;;;;7.77;1.30;;;19.10;99.90;;;;;;4809311;28;20697;-74
2021/04/24 09:49:17;;;;;;;6.17;1.07;;;18.60;99.90;;;;;;4808805;28;20608;-74
2021/04/24 09:51:42;;;;;;;6.63;1.13;;;18.10;99.90;;;;;;4821298;28;20239;-74
2021/04/24 09:54:04;;;;;;;10.20;1.60;;;17.70;99.90;;;;;;4821358;28;20560;-74
2021/04/24 09:56:27;;;;;;;12.27;1.97;;;;;;;;;;4821900;28;20211;-73
2021/04/24 09:58:49;;;;;;;7.33;1.33;;;;;;;;;;4849940;28;20194;-73
2021/04/24 10:01:23;;;;;;;8.50;1.40;;;16.80;99.90;;;;;;4818738;28;20223;-73
2021/04/24 10:03:47;;;;;;;9.40;1.60;;;;;;;;;;4820805;28;20292;-74
2021/04/24 10:06:37;;;;;;;10.23;1.80;;;16.30;99.90;;;;;;4819645;28;20195;-73
2021/04/24 10:09:21;;;;;;;12.13;2.10;;;16.50;1.00;;;;;;4816405;28;20183;-74
2021/04/24 10:11:46;;;;;;;6.10;1.17;;;16.30;99.90;;;;;;4834356;28;20256;-73
2021/04/24 10:14:08;;;;;;;12.50;2.07;;;;;;;;;;4809721;28;20184;-74
2021/04/24 10:16:36;;;;;;;6.57;1.20;;;21.40;1.00;;;;;;4819868;28;20289;-74
2021/04/24 10:18:59;;;;;;;12.70;1.93;;;;;;;;;;4817296;28;20198;-74
2021/04/24 10:21:22;;;;;;;13.33;1.97;;;;;;;;;;4800931;28;20308;-75
2021/04/24 10:23:44;;;;;;;9.50;1.50;;;;;;;;;;4788581;28;20195;-72
2021/04/24 10:26:06;;;;;;;12.67;1.97;;;;;;;;;;4821437;28;20592;-76
2021/04/24 10:28:29;;;;;;;13.80;2.07;;;;;;;;;;4849954;28;20220;-73
2021/04/24 10:30:51;;;;;;;6.43;1.10;;;;;;;;;;4820414;28;20194;-77
2021/04/24 10:33:15;;;;;;;7.67;1.20;;;22.10;99.90;;;;;;4820076;28;20239;-76
2021/04/24 10:35:37;;;;;;;9.73;1.50;;;;;;;;;;4835004;28;20246;-78
2021/04/24 10:38:04;;;;;;;16.60;2.40;;;25.70;99.90;;;;;;4819117;28;20400;-83
2021/04/24 10:40:26;;;;;;;34.27;4.40;;;;;;;;;;4820184;28;20229;-74
2021/04/24 10:42:52;;;;;;;350.40;285.40;;;30.60;99.90;;;;;;4820453;28;20250;-85
2021/04/24 10:45:28;;;;;;;266.83;244.67;;;33.20;99.90;;;;;;4823252;28;20727;-76
2021/04/24 10:47:58;;;;;;;407.57;335.20;;;;;;;;;;4839225;28;20206;-77
2021/04/24 10:50:23;;;;;;;71.53;64.80;;;37.50;99.90;;;;;;4836361;28;20194;-81
2021/04/24 10:52:46;;;;;;;37.10;33.92;;;;;;;;;;4839084;28;20241;-79
2021/04/24 10:55:32;;;;;;;178.88;167.35;;;40.80;99.90;;;;;;4822769;28;20191;-79
2021/04/24 10:57:57;;;;;;;432.17;392.55;;;40.60;99.90;;;;;;4814435;28;20222;-77
2021/04/24 11:00:21;;;;;;;386.27;357.45;;;41.00;99.90;;;;;;4820571;28;20214;-76
2021/04/24 11:02:45;;;;;;;210.38;198.20;;;41.90;99.90;;;;;;4829546;28;20324;-79
2021/04/24 11:05:29;;;;;;;388.60;363.20;;;42.10;99.90;;;;;;4818833;28;20238;-86
2021/04/24 11:08:25;;;;;;;427.75;397.80;;;41.80;99.90;;;;;;4817390;28;20234;-77
2021/04/24 11:10:49;;;;;;;86.35;80.50;;;40.20;99.90;;;;;;4818806;28;20179;-78
2021/04/24 11:13:15;;;;;;;44.33;37.08;;;38.40;99.90;;;;;;4834246;28;20206;-78
2021/04/24 11:15:39;;;;;;;24.85;16.20;;;37.20;99.90;;;;;;4820657;28;20230;-77
2021/04/24 11:18:06;;;;;;;15.63;2.28;;;34.90;99.90;;;;;;4845445;28;20190;-82
2021/04/24 11:20:55;;;;;;;20.60;3.00;;;33.00;1.00;;;;;;4816282;28;20210;-76
2021/04/24 11:23:50;;;;;;;38.35;5.05;;;32.10;99.90;;;;;;4805378;28;20717;-80
2021/04/24 11:26:15;;;;;;;14.95;2.15;;;32.40;99.90;;;;;;4818998;28;20215;-82
2021/04/24 11:29:06;;;;;;;11.50;1.77;;;32.20;99.90;;;;;;4800076;28;20219;-75
2021/04/24 11:31:49;;;;;;;22.77;5.38;;;31.50;99.90;;;;;;4820462;28;20580;-74
2021/04/24 11:34:24;;;;;;;52.65;43.63;;;30.80;99.90;;;;;;4801274;28;20207;-79
2021/04/24 11:36:46;;;;;;;54.90;43.33;;;32.00;99.90;;;;;;4815837;28;20190;-74
2021/04/24 11:39:12;;;;;;;48.50;44.10;;;34.00;99.90;;;;;;4818671;28;20219;-75
2021/04/24 11:41:35;;;;;;;100.88;94.20;;;36.50;99.90;;;;;;4817643;28;20266;-76
2021/04/24 11:43:57;;;;;;;116.15;109.05;;;;;;;;;;4819883;28;20179;-75
2021/04/24 11:46:34;;;;;;;141.90;133.18;;;41.00;99.90;;;;;;4817734;28;20309;-80
2021/04/24 11:49:11;;;;;;;142.27;134.38;;;42.20;99.90;;;;;;4802304;28;20557;-73
2021/04/24 11:51:55;;;;;;;324.58;303.65;;;41.30;99.90;;;;;;4819343;28;20641;-79
2021/04/24 11:54:26;;;;;;;232.38;219.13;;;40.20;99.90;;;;;;4817867;28;20195;-83
2021/04/24 11:56:49;;;;;;;104.38;94.80;;;39.30;99.90;;;;;;4816910;28;20203;-75
2021/04/24 11:59:12;;;;;;;128.18;121.18;;;;;;;;;;4802158;28;20206;-75
2021/04/24 12:01:34;;;;;;;182.13;171.27;;;;;;;;;;4816447;28;20234;-75
2021/04/24 12:03:57;;;;;;;17.08;7.25;;;;;;;;;;4818076;28;20207;-78
2021/04/24 12:06:42;;;;;;;35.80;5.47;;;31.40;99.90;;;;;;4800885;28;20716;-82
2021/04/24 12:09:09;;;;;;;20.27;4.90;;;31.70;99.90;;;;;;4817933;28;20203;-78
2021/04/24 12:11:31;;;;;;;47.35;8.30;;;33.60;99.90;;;;;;4800376;28;20271;-74
2021/04/24 12:13:53;;;;;;;13.18;5.82;;;;;;;;;;4822749;28;20207;-79
2021/04/24 12:16:16;;;;;;;18.42;2.58;;;;;;;;;;4801252;28;20652;-79
2021/04/24 12:18:38;;;;;;;12.30;1.83;;;;;;;;;;4818274;28;20214;-73
2021/04/24 12:21:00;;;;;;;13.45;1.98;;;;;;;;;;4819144;28;20584;-78
2021/04/24 12:23:22;;;;;;;43.63;8.93;;;;;;;;;;4816700;28;20260;-74
2021/04/24 12:25:46;;;;;;;7.05;1.13;;;28.30;1.00;;;;;;4817235;28;20262;-74
2021/04/24 12:28:10;;;;;;;23.77;2.97;;;27.80;1.00;;;;;;4832477;28;20230;-76
2021/04/24 12:30:34;;;;;;;13.23;1.87;;;26.50;99.90;;;;;;4818979;28;20621;-77
2021/04/24 12:33:05;;;;;;;19.57;2.53;;;26.10;99.90;;;;;;4818699;28;20719;-78
2021/04/24 12:35:30;;;;;;;21.23;2.73;;;26.10;99.90;;;;;;4817729;28;20235;-79
2021/04/24 12:38:04;;;;;;;17.53;2.40;;;26.00;99.90;;;;;;4818091;28;20558;-76
2021/04/24 12:40:28;;;;;;;22.37;2.87;;;25.50;99.90;;;;;;4817364;28;20235;-77
2021/04/24 12:42:51;;;;;;;11.47;1.60;;;25.70;99.90;;;;;;4817545;28;20212;-72
2021/04/24 12:45:24;;;;;;;9.73;1.43;;;28.10;99.90;;;;;;4815971;28;20242;-73
2021/04/24 12:47:48;;;;;;;10.07;1.43;;;31.50;99.90;;;;;;4818013;28;20219;-75
2021/04/24 12:50:15;;;;;;;18.15;2.55;;;33.70;99.90;;;;;;4817532;28;20226;-75
2021/04/24 12:52:43;;;;;;;7.43;1.15;;;34.80;99.90;;;;;;4834725;28;20280;-74
2021/04/24 12:55:06;;;;;;;18.98;2.90;;;33.80;99.90;;;;;;4816365;28;20199;-74
2021/04/24 12:57:29;;;;;;;22.65;3.03;;;;;;;;;;4832770;28;20210;-74